Time;durP1;ratioP1;P1;durP2;ratioP2;P2;SDS_P1;SDS_P2;PMS_P1;PMS_P2;Temp;Humidity;BMP_temperature;BMP_pressure;BME280_temperature;BME280_humidity;BME280_pressure;Samples;Min_cycle;Max_cycle;Signal;HPM_P1;HPM_P2
2021/03/12 00:01:57;;;;;;;;;;;;;;;11.14;52.06;99811.19;4996942;28;6875;-75
2021/03/12 00:04:23;;;;;;;;;;;;;;;11.12;51.60;99806.84;4994919;28;7234;-75
2021/03/12 00:06:48;;;;;;;;;;;;;;;11.09;52.22;99815.50;4994691;28;7166;-76
2021/03/12 00:09:14;;;;;;;;;;;;;;;11.09;51.68;99819.81;5010585;28;7329;-75
2021/03/12 00:11:40;;;;;;;;;;;;;;;11.06;51.82;99823.28;5011440;28;6946;-75
2021/03/12 00:14:06;;;;;;;;;;;;;;;11.03;52.01;99828.44;4983052;28;7013;-76
2021/03/12 00:16:31;;;;;;;;;;;;;;;11.03;51.64;99848.38;4999115;28;7390;-75
2021/03/12 00:18:57;;;;;;;;;;;;;;;11.00;51.49;99850.91;4981338;28;7318;-75
2021/03/12 00:21:24;;;;;;;;;;;;;;;10.90;52.92;99853.47;4997949;28;7218;-75
2021/03/12 00:23:50;;;;;;;;;;;;;;;10.87;52.09;99855.19;4998486;28;7743;-75
2021/03/12 00:26:15;;;;;;;;;;;;;;;10.88;52.36;99850.00;4985113;28;7368;-75
2021/03/12 00:28:41;;;;;;;;;;;;;;;10.89;52.41;99861.25;5002528;28;6808;-75
2021/03/12 00:31:06;;;;;;;;;;;;;;;10.87;52.44;99873.34;5001502;28;6790;-75
2021/03/12 00:33:32;;;;;;;;;;;;;;;10.84;52.83;99882.00;5001997;28;7223;-75
2021/03/12 00:35:58;;;;;;;;;;;;;;;10.82;52.13;99888.91;5001562;28;7341;-75
2021/03/12 00:38:23;;;;;;;;;;;;;;;10.79;52.76;99896.66;5015849;28;7214;-75
2021/03/12 00:40:57;;;;;;;;;;;;;;;10.77;52.65;99900.97;4985416;28;8473;-75
2021/03/12 00:43:22;;;;;;;;;;;;;;;10.73;52.58;99886.22;5000155;28;7218;-75
2021/03/12 00:46:01;;;;;;;;;;;;;;;10.73;53.09;99895.72;5014279;28;7100;-75
2021/03/12 00:48:26;;;;;;;;;;;;;;;10.70;53.37;99895.72;5014875;28;6827;-75
2021/03/12 00:50:52;;;;;;;;;;;;;;;10.68;53.09;99905.22;4984048;28;6931;-75
2021/03/12 00:53:18;;;;;;;;;;;;;;;10.64;52.84;99907.78;5001375;28;7075;-75
2021/03/12 00:55:43;;;;;;;;;;;;;;;10.61;53.25;99912.06;4986413;28;8659;-75
2021/03/12 00:58:09;;;;;;;;;;;;;;;10.59;53.76;99913.78;4998806;28;6855;-75
2021/03/12 01:00:35;;;;;;;;;;;;;;;10.56;53.20;99909.41;5000914;28;7198;-75
2021/03/12 01:03:01;;;;;;;;;;;;;;;10.55;53.75;99925.00;5015977;28;7008;-75
2021/03/12 01:05:26;;;;;;;;;;;;;;;10.53;53.79;99914.59;5018997;28;7233;-75
2021/03/12 01:07:52;;;;;;;;;;;;;;;10.50;53.38;99913.69;5000306;28;6987;-75
2021/03/12 01:10:18;;;;;;;;;;;;;;;10.47;53.63;99906.75;5004675;28;8418;-75
2021/03/12 01:12:44;;;;;;;;;;;;;;;10.46;53.52;99917.13;5016253;28;6867;-75
2021/03/12 01:15:11;;;;;;;;;;;;;;;10.44;53.85;99926.63;4993695;28;6779;-75
2021/03/12 01:17:37;;;;;;;;;;;;;;;10.42;53.65;99926.59;4981806;28;8813;-75
2021/03/12 01:20:07;;;;;;;;;;;;;;;10.39;54.31;99931.75;4982526;28;7071;-75
2021/03/12 01:22:33;;;;;;;;;;;;;;;10.36;54.25;99931.72;4999879;28;11271;-75
2021/03/12 01:25:00;;;;;;;;;;;;;;;10.32;54.06;99930.81;5015661;28;7182;-75
2021/03/12 01:27:25;;;;;;;;;;;;;;;10.33;53.75;99929.09;5000075;28;7202;-75
2021/03/12 01:29:51;;;;;;;;;;;;;;;10.30;53.92;99945.50;4997650;28;6792;-75
2021/03/12 01:32:16;;;;;;;;;;;;;;;10.29;54.18;99945.47;4998811;28;7190;-75
2021/03/12 01:34:42;;;;;;;;;;;;;;;10.27;53.97;99975.72;4999749;28;7332;-75
2021/03/12 01:37:08;;;;;;;;;;;;;;;10.26;54.27;99968.81;4987733;28;7041;-75
2021/03/12 01:39:33;;;;;;;;;;;;;;;10.25;53.76;99965.34;5001429;28;7457;-75
2021/03/12 01:41:59;;;;;;;;;;;;;;;10.23;54.06;99984.34;5000252;28;7078;-75
2021/03/12 01:44:24;;;;;;;;;;;;;;;10.21;54.18;99978.22;4999380;28;7116;-75
2021/03/12 01:46:50;;;;;;;;;;;;;;;10.19;54.30;99985.97;5001357;28;7063;-75
2021/03/12 01:49:15;;;;;;;;;;;;;;;10.19;54.05;99998.06;4996978;28;7163;-75
2021/03/12 01:51:41;;;;;;;;;;;;;;;10.14;54.01;99991.97;4996858;28;7220;-75
2021/03/12 01:54:06;;;;;;;;;;;;;;;10.10;54.12;99985.88;4984198;28;8755;-75
2021/03/12 01:56:32;;;;;;;;;;;;;;;10.12;53.94;99991.06;5016926;28;8393;-75
2021/03/12 01:58:57;;;;;;;;;;;;;;;10.13;53.83;99982.44;4999930;28;6787;-75
2021/03/12 02:01:23;;;;;;;;;;;;;;;10.11;54.18;99997.97;4998286;28;6956;-75
2021/03/12 02:03:48;;;;;;;;;;;;;;;10.06;54.48;100005.72;4987584;28;7483;-75
2021/03/12 02:06:14;;;;;;;;;;;;;;;10.07;54.69;100016.97;4983379;28;7682;-75
2021/03/12 02:08:39;;;;;;;;;;;;;;;10.08;54.24;100029.06;4988083;28;7195;-75
2021/03/12 02:11:05;;;;;;;;;;;;;;;10.07;54.43;100029.94;4986888;28;6795;-75
2021/03/12 02:13:43;;;;;;;;;;;;;;;10.05;54.05;100042.88;4987015;28;6987;-75
2021/03/12 02:16:22;;;;;;;;;;;;;;;10.04;54.20;100020.38;4970507;28;11770;-75
2021/03/12 02:18:53;;;;;;;;;;;;;;;10.01;54.66;100025.53;4983562;28;8703;-75
2021/03/12 02:21:38;;;;;;;;;;;;;;;9.99;54.33;100029.81;5000293;28;7095;-75
2021/03/12 02:24:22;;;;;;;;;;;;;;;10.00;54.57;100031.53;5002769;28;12999;-75
2021/03/12 02:26:51;;;;;;;;;;;;;;;9.98;54.12;100022.88;4984489;28;11251;-75
2021/03/12 02:29:21;;;;;;;;;;;;;;;9.98;54.21;100034.97;4999529;28;7318;-75
2021/03/12 02:31:46;;;;;;;;;;;;;;;9.95;54.33;100025.44;4986859;28;7197;-75
2021/03/12 02:34:13;;;;;;;;;;;;;;;9.91;54.84;100027.97;4986534;28;7441;-75
2021/03/12 02:36:40;;;;;;;;;;;;;;;9.91;54.32;100034.03;4987363;28;7004;-75
2021/03/12 02:39:08;;;;;;;;;;;;;;;9.92;54.74;100037.50;4986305;28;7185;-75
2021/03/12 02:41:33;;;;;;;;;;;;;;;9.93;54.43;100047.00;4990054;28;7015;-74
2021/03/12 02:43:59;;;;;;;;;;;;;;;9.91;54.10;100040.94;4984834;28;7224;-74
2021/03/12 02:46:25;;;;;;;;;;;;;;;9.91;54.39;100052.19;4987555;28;6809;-73
2021/03/12 02:48:50;;;;;;;;;;;;;;;9.87;54.78;100040.03;4972102;28;7334;-74
2021/03/12 02:51:18;;;;;;;;;;;;;;;9.86;54.63;100048.66;4992617;28;6981;-74
2021/03/12 02:53:44;;;;;;;;;;;;;;;9.87;54.41;100057.31;5010211;28;7066;-74
2021/03/12 02:56:10;;;;;;;;;;;;;;;9.85;54.56;100054.69;4984391;28;7314;-73
2021/03/12 02:58:35;;;;;;;;;;;;;;;9.83;54.50;100059.00;5003924;28;7427;-74
2021/03/12 03:01:03;;;;;;;;;;;;;;;9.83;54.47;100051.22;5000615;28;6859;-74
2021/03/12 03:03:28;;;;;;;;;;;;;;;9.81;54.79;100055.50;5015952;28;7258;-74
2021/03/12 03:05:54;;;;;;;;;;;;;;;9.81;54.93;100055.50;4987072;28;7360;-73
2021/03/12 03:08:19;;;;;;;;;;;;;;;9.80;55.06;100053.72;4986570;28;6795;-74
2021/03/12 03:10:45;;;;;;;;;;;;;;;9.78;54.54;100058.03;4990465;28;8467;-74
2021/03/12 03:13:10;;;;;;;;;;;;;;;9.79;55.06;100062.34;4998858;28;6784;-74
2021/03/12 03:15:36;;;;;;;;;;;;;;;9.76;54.67;100062.31;4980465;28;6922;-73
2021/03/12 03:18:02;;;;;;;;;;;;;;;9.75;54.98;100064.03;4995388;28;7365;-74
2021/03/12 03:20:27;;;;;;;;;;;;;;;9.75;54.79;100073.53;4996564;28;7285;-74
2021/03/12 03:22:53;;;;;;;;;;;;;;;9.74;54.75;100064.00;4979858;28;7375;-74
2021/03/12 03:25:18;;;;;;;;;;;;;;;9.72;55.17;100066.59;4987029;28;6815;-74
2021/03/12 03:27:44;;;;;;;;;;;;;;;9.73;55.07;100075.22;4970430;28;6847;-75
2021/03/12 03:30:11;;;;;;;;;;;;;;;9.71;55.00;100075.22;4983923;28;8652;-74
2021/03/12 03:32:37;;;;;;;;;;;;;;;9.70;55.23;100078.66;4983354;28;7317;-74
2021/03/12 03:35:06;;;;;;;;;;;;;;;9.68;55.05;100085.53;4986031;28;7779;-74
2021/03/12 03:37:32;;;;;;;;;;;;;;;9.67;55.14;100081.19;4987070;28;11103;-74
2021/03/12 03:39:57;;;;;;;;;;;;;;;9.68;55.45;100088.13;5000961;28;6799;-74
2021/03/12 03:42:24;;;;;;;;;;;;;;;9.65;55.02;100095.00;4976285;28;8313;-74
2021/03/12 03:44:50;;;;;;;;;;;;;;;9.64;55.13;100085.47;4987506;28;6824;-74
2021/03/12 03:47:15;;;;;;;;;;;;;;;9.64;55.02;100098.44;4985654;28;6857;-74
2021/03/12 03:49:41;;;;;;;;;;;;;;;9.63;55.13;100094.97;4986803;28;7412;-74
2021/03/12 03:52:07;;;;;;;;;;;;;;;9.63;54.90;100094.09;4981254;28;7290;-75
2021/03/12 03:54:33;;;;;;;;;;;;;;;9.60;55.07;100104.38;4981295;28;6964;-74
2021/03/12 03:56:58;;;;;;;;;;;;;;;9.61;55.39;100107.03;4981841;28;7296;-74
2021/03/12 03:59:24;;;;;;;;;;;;;;;9.60;55.10;100102.66;4969579;28;6843;-74
2021/03/12 04:01:49;;;;;;;;;;;;;;;9.59;55.19;100094.88;4987897;28;7222;-74
2021/03/12 04:04:15;;;;;;;;;;;;;;;9.60;54.74;100101.78;5003445;28;7298;-74
2021/03/12 04:06:41;;;;;;;;;;;;;;;9.58;54.92;100113.88;4992922;28;7326;-74
2021/03/12 04:09:07;;;;;;;;;;;;;;;9.57;55.40;100106.94;5007146;28;6796;-75
2021/03/12 04:11:33;;;;;;;;;;;;;;;9.56;54.97;100113.84;4990474;28;6803;-74
2021/03/12 04:13:58;;;;;;;;;;;;;;;9.57;55.17;100109.53;4988330;28;6828;-74
2021/03/12 04:16:24;;;;;;;;;;;;;;;9.56;55.31;100110.38;5005083;28;7919;-74
2021/03/12 04:18:49;;;;;;;;;;;;;;;9.56;55.15;100106.06;4994729;28;7853;-74
2021/03/12 04:21:16;;;;;;;;;;;;;;;9.54;54.75;100112.06;5000354;28;7176;-74
2021/03/12 04:23:41;;;;;;;;;;;;;;;9.53;54.89;100121.56;4999980;28;7938;-75
2021/03/12 04:26:07;;;;;;;;;;;;;;;9.51;55.30;100119.81;5003091;28;7217;-74
2021/03/12 04:28:32;;;;;;;;;;;;;;;9.51;55.15;100127.56;4996514;28;8546;-75
2021/03/12 04:30:58;;;;;;;;;;;;;;;9.51;55.34;100128.44;5001072;28;6829;-74
2021/03/12 04:33:24;;;;;;;;;;;;;;;9.45;55.32;100126.63;4999866;28;8326;-74
2021/03/12 04:35:49;;;;;;;;;;;;;;;9.48;55.38;100132.72;5001784;28;6965;-74
2021/03/12 04:38:15;;;;;;;;;;;;;;;9.49;54.83;100139.63;4991814;28;7078;-74
2021/03/12 04:40:40;;;;;;;;;;;;;;;9.44;55.20;100140.44;5000421;28;6801;-74
2021/03/12 04:43:07;;;;;;;;;;;;;;;9.48;54.98;100132.72;4986396;28;7902;-74
2021/03/12 04:45:32;;;;;;;;;;;;;;;9.49;54.95;100134.47;5016841;28;11402;-73
2021/03/12 04:47:58;;;;;;;;;;;;;;;9.48;54.81;100143.06;5001039;28;6846;-75
2021/03/12 04:50:24;;;;;;;;;;;;;;;9.47;55.18;100143.94;5002821;28;7547;-74
2021/03/12 04:52:50;;;;;;;;;;;;;;;9.44;55.30;100153.41;4985646;28;9684;-74
2021/03/12 04:55:15;;;;;;;;;;;;;;;9.45;54.84;100154.25;5002033;28;6826;-74
2021/03/12 04:57:41;;;;;;;;;;;;;;;9.44;55.25;100150.81;4999003;28;7130;-75
2021/03/12 05:00:07;;;;;;;;;;;;;;;9.44;55.04;100152.53;5001986;28;6856;-74
2021/03/12 05:02:33;;;;;;;;;;;;;;;9.43;54.63;100149.06;4999061;28;11279;-74
2021/03/12 05:04:59;;;;;;;;;;;;;;;9.43;55.25;100154.25;5001933;28;7246;-74
2021/03/12 05:07:24;;;;;;;;;;;;;;;9.42;54.94;100155.09;4998789;28;6995;-74
2021/03/12 05:09:50;;;;;;;;;;;;;;;9.42;54.93;100154.22;5000646;28;6929;-74
2021/03/12 05:12:15;;;;;;;;;;;;;;;9.41;54.86;100150.75;4984106;28;7126;-74
2021/03/12 05:14:41;;;;;;;;;;;;;;;9.40;54.90;100156.75;4993716;28;6795;-74
2021/03/12 05:17:07;;;;;;;;;;;;;;;9.40;54.79;100151.56;5010918;28;7501;-74
2021/03/12 05:19:32;;;;;;;;;;;;;;;9.39;55.04;100151.53;4991037;28;11061;-74
2021/03/12 05:21:59;;;;;;;;;;;;;;;9.39;55.09;100159.31;4976274;28;8495;-74
2021/03/12 05:24:24;;;;;;;;;;;;;;;9.38;55.23;100153.25;4991988;28;6899;-74
2021/03/12 05:26:50;;;;;;;;;;;;;;;9.38;54.92;100158.44;4975711;28;7468;-74
2021/03/12 05:29:15;;;;;;;;;;;;;;;9.37;54.94;100159.28;4978899;28;7191;-74
2021/03/12 05:31:41;;;;;;;;;;;;;;;9.37;54.87;100167.06;4977221;28;7559;-74
2021/03/12 05:34:06;;;;;;;;;;;;;;;9.37;54.87;100163.59;4981306;28;7115;-74
2021/03/12 05:36:32;;;;;;;;;;;;;;;9.41;55.00;100165.41;4998533;28;7032;-76
2021/03/12 05:38:57;;;;;;;;;;;;;;;9.45;55.00;100175.88;4998838;28;7182;-76
2021/03/12 05:41:23;;;;;;;;;;;;;;;9.47;54.55;100173.31;5016890;28;7079;-77
2021/03/12 05:43:48;;;;;;;;;;;;;;;9.48;55.04;100174.19;4984234;28;9395;-76
2021/03/12 05:46:14;;;;;;;;;;;;;;;9.49;54.93;100174.22;5016607;28;6942;-76
2021/03/12 05:48:41;;;;;;;;;;;;;;;9.51;54.77;100174.22;4997825;28;6942;-77
2021/03/12 05:51:06;;;;;;;;;;;;;;;9.54;54.54;100179.47;5000656;28;7545;-76
2021/03/12 05:53:32;;;;;;;;;;;;;;;9.54;54.39;100174.28;4986488;28;8371;-77
2021/03/12 05:55:58;;;;;;;;;;;;;;;9.57;54.20;100179.50;4996257;28;6795;-76
2021/03/12 05:58:23;;;;;;;;;;;;;;;9.55;54.09;100182.09;5001446;28;6798;-75
2021/03/12 06:00:49;;;;;;;;;;;;;;;9.57;54.23;100179.50;5001742;28;7771;-76
2021/03/12 06:03:15;;;;;;;;;;;;;;;9.60;54.05;100184.75;5000814;28;8681;-75
2021/03/12 06:05:43;;;;;;;;;;;;;;;9.62;53.91;100180.50;4998254;28;7324;-74
2021/03/12 06:08:08;;;;;;;;;;;;;;;9.61;53.94;100187.41;4998375;28;8595;-74
2021/03/12 06:10:34;;;;;;;;;;;;;;;9.63;53.57;100188.31;5000726;28;6867;-74
2021/03/12 06:13:01;;;;;;;;;;;;;;;9.65;53.84;100186.59;4999379;28;8516;-74
2021/03/12 06:15:45;;;;;;;;;;;;;;;9.68;53.42;100198.75;5001010;28;7442;-74
2021/03/12 06:18:20;;;;;;;;;;;;;;;9.71;53.72;100193.59;4988624;28;11314;-74
2021/03/12 06:20:46;;;;;;;;;;;;;;;9.73;53.76;100192.78;5004194;28;8178;-74
2021/03/12 06:23:11;;;;;;;;;;;;;;;9.76;53.44;100198.03;4979415;28;8848;-74
2021/03/12 06:25:37;;;;;;;;;;;;;;;9.81;53.36;100205.00;4997166;28;7687;-76
2021/03/12 06:28:16;;;;;;;;;;;;;;;9.82;53.42;100205.06;4997551;28;6811;-75
2021/03/12 06:30:42;;;;;;;;;;;;;;;9.85;52.95;100205.09;4989503;28;13110;-76
2021/03/12 06:33:08;;;;;;;;;;;;;;;9.86;53.51;100209.44;5017685;28;6852;-73
2021/03/12 06:35:37;;;;;;;;;;;;;;;9.91;52.83;100206.91;5023287;28;6825;-75
2021/03/12 06:38:07;;;;;;;;;;;;;;;9.95;53.00;100209.59;5008512;28;7386;-73
2021/03/12 06:40:33;;;;;;;;;;;;;;;9.98;53.28;100214.81;5008065;28;7406;-73
2021/03/12 06:43:04;;;;;;;;;;;;;;;10.02;52.93;100213.19;5007956;28;6810;-73
2021/03/12 06:45:31;;;;;;;;;;;;;;;10.05;52.42;100216.69;5011802;28;7241;-73
2021/03/12 06:48:18;;;;;;;;;;;;;;;10.10;52.89;100221.06;5009978;28;7089;-72
2021/03/12 06:51:06;;;;;;;;;;;;;;;10.19;52.46;100218.63;4990849;28;10978;-72
2021/03/12 06:53:38;;;;;;;;;;;;;;;10.24;51.97;100217.03;4986435;28;7289;-72
2021/03/12 06:56:05;;;;;;;;;;;;;;;10.23;52.31;100228.25;4999332;28;7134;-72
2021/03/12 06:58:31;;;;;;;;;;;;;;;10.26;51.86;100236.09;4999605;28;6845;-73
2021/03/12 07:00:57;;;;;;;;;;;;;;;10.26;51.79;100233.50;5002162;28;6817;-73
2021/03/12 07:03:32;;;;;;;;;;;;;;;10.26;52.59;100236.09;4998711;28;6812;-73
2021/03/12 07:06:05;;;;;;;;;;;;;;;10.27;51.70;100237.84;5000471;28;7268;-73
2021/03/12 07:08:34;;;;;;;;;;;;;;;10.33;51.71;100243.13;5001350;28;7023;-74
2021/03/12 07:11:00;;;;;;;;;;;;;;;10.38;51.65;100246.66;4998227;28;6965;-73
2021/03/12 07:13:26;;;;;;;;;;;;;;;10.46;51.93;100250.25;5014112;28;8863;-73
2021/03/12 07:15:52;;;;;;;;;;;;;;;10.59;51.23;100246.97;4994894;28;6942;-73
2021/03/12 07:18:19;;;;;;;;;;;;;;;10.64;51.42;100252.25;4997498;28;7136;-73
2021/03/12 07:20:45;;;;;;;;;;;;;;;10.65;51.36;100251.41;4997126;28;7276;-73
2021/03/12 07:23:10;;;;;;;;;;;;;;;10.71;50.57;100251.50;4999353;28;7325;-73
2021/03/12 07:25:36;;;;;;;;;;;;;;;10.75;51.07;100255.00;4996623;28;11166;-73
2021/03/12 07:28:02;;;;;;;;;;;;;;;10.78;50.41;100248.13;4997115;28;6796;-77
2021/03/12 07:30:28;;;;;;;;;;;;;;;10.83;50.95;100261.19;4998417;28;7553;-78
2021/03/12 07:32:54;;;;;;;;;;;;;;;10.85;50.51;100259.50;4980981;28;7217;-75
2021/03/12 07:35:22;;;;;;;;;;;;;;;10.89;50.29;100263.88;5014058;28;8640;-74
2021/03/12 07:37:48;;;;;;;;;;;;;;;10.94;50.63;100275.19;5014479;28;7580;-75
2021/03/12 07:40:14;;;;;;;;;;;;;;;10.94;50.67;100276.06;5015889;28;7666;-75
2021/03/12 07:42:40;;;;;;;;;;;;;;;10.95;50.18;100282.13;5004534;28;7178;-77
2021/03/12 07:45:06;;;;;;;;;;;;;;;11.03;50.48;100277.06;5001243;28;7013;-75
2021/03/12 07:47:31;;;;;;;;;;;;;;;11.08;49.82;100278.88;4986121;28;6799;-76
2021/03/12 07:49:57;;;;;;;;;;;;;;;11.14;49.82;100284.13;5001215;28;8038;-73
2021/03/12 07:52:51;;;;;;;;;;;;;;;11.24;49.86;100282.56;5015539;28;7044;-73
2021/03/12 07:55:34;;;;;;;;;;;;;;;11.33;49.67;100289.59;4998080;28;10853;-73
2021/03/12 07:58:00;;;;;;;;;;;;;;;11.41;49.54;100287.94;5002970;28;7562;-73
2021/03/12 08:00:26;;;;;;;;;;;;;;;11.44;49.12;100285.41;4997617;28;6799;-73
2021/03/12 08:02:53;;;;;;;;;;;;;;;11.47;49.22;100294.09;4999226;28;6804;-73
2021/03/12 08:05:41;;;;;;;;;;;;;;;11.59;48.59;100290.75;5001530;28;7396;-73
2021/03/12 08:08:30;;;;;;;;;;;;;;;11.67;48.48;100298.69;4994082;28;12749;-74
2021/03/12 08:11:24;;;;;;;;;;;;;;;11.76;48.52;100290.97;5012801;28;11211;-73
2021/03/12 08:13:50;;;;;;;;;;;;;;;11.84;48.55;100290.25;5011039;28;12800;-73
2021/03/12 08:16:15;;;;;;;;;;;;;;;11.90;48.09;100294.63;5009168;28;6795;-73
2021/03/12 08:18:41;;;;;;;;;;;;;;;12.05;47.83;100293.91;5024006;28;6953;-73
2021/03/12 08:21:27;;;;;;;;;;;;;;;12.17;47.54;100294.88;5025703;28;6807;-74
2021/03/12 08:23:52;;;;;;;;;;;;;;;12.31;47.02;100282.00;5012933;28;11169;-72
2021/03/12 08:26:46;;;;;;;;;;;;;;;12.41;47.01;100296.88;5028589;28;8353;-73
2021/03/12 08:29:31;;;;;;;;;;;;;;;12.55;46.76;100290.88;5010140;28;11113;-73
2021/03/12 08:31:57;;;;;;;;;;;;;;;12.65;46.63;100282.28;5008912;28;11175;-73
2021/03/12 08:34:35;;;;;;;;;;;;;;;12.74;46.31;100285.81;5005743;28;7562;-73
2021/03/12 08:37:29;;;;;;;;;;;;;;;12.80;46.33;100283.25;5019488;28;7261;-74
2021/03/12 08:40:16;;;;;;;;;;;;;;;12.95;45.45;100277.25;5005401;28;11431;-74
2021/03/12 08:43:08;;;;;;;;;;;;;;;13.04;45.64;100274.72;5008195;28;11531;-76
2021/03/12 08:45:44;;;;;;;;;;;;;;;13.20;45.37;100267.88;5011649;28;13079;-74
2021/03/12 08:48:18;;;;;;;;;;;;;;;13.36;45.15;100271.41;5011553;28;11001;-74
2021/03/12 08:50:56;;;;;;;;;;;;;;;13.43;44.22;100261.91;5017419;28;11113;-74
2021/03/12 08:53:23;;;;;;;;;;;;;;;13.34;44.87;100267.94;5013355;28;7183;-74
2021/03/12 08:55:50;;;;;;;;;;;;;;;13.27;44.72;100271.41;4999411;28;6885;-74
2021/03/12 08:58:19;;;;;;;;;;;;;;;13.21;44.93;100271.34;4996238;28;7043;-74
2021/03/12 09:00:47;;;;;;;;;;;;;;;13.23;45.48;100280.06;5001079;28;6989;-74
2021/03/12 09:03:19;;;;;;;;;;;;;;;13.21;45.13;100276.56;5014063;28;7354;-75
2021/03/12 09:05:46;;;;;;;;;;;;;;;13.28;44.85;100279.22;4998876;28;11143;-78
2021/03/12 09:08:13;;;;;;;;;;;;;;;13.35;44.57;100283.59;5000197;28;7312;-73
2021/03/12 09:10:39;;;;;;;;;;;;;;;13.54;44.37;100268.88;5005590;28;11283;-73
2021/03/12 09:13:21;;;;;;;;;;;;;;;13.83;43.78;100263.78;5005799;28;6992;-72
2021/03/12 09:15:47;;;;;;;;;;;;;;;14.02;43.82;100272.50;5019256;28;10961;-72
2021/03/12 09:18:17;;;;;;;;;;;;;;;14.04;43.26;100265.56;5003936;28;7206;-73
2021/03/12 09:20:43;;;;;;;;;;;;;;;14.08;43.80;100271.63;5018767;28;11388;-75
2021/03/12 09:23:08;;;;;;;;;;;;;;;14.14;43.31;100272.50;4997182;28;7318;-75
2021/03/12 09:25:34;;;;;;;;;;;;;;;14.20;43.09;100264.66;5015752;28;7773;-75
2021/03/12 09:28:07;;;;;;;;;;;;;;;14.31;42.63;100262.94;5001778;28;6803;-74
2021/03/12 09:30:40;;;;;;;;;;;;;;;14.58;42.45;100266.44;5018341;28;6993;-75
2021/03/12 09:33:06;;;;;;;;;;;;;;;14.55;42.76;100261.22;4999411;28;7470;-74
2021/03/12 09:35:39;;;;;;;;;;;;;;;14.48;42.55;100267.34;5001646;28;6887;-73
2021/03/12 09:38:05;;;;;;;;;;;;;;;14.37;43.24;100251.63;4997146;28;7479;-73
2021/03/12 09:40:41;;;;;;;;;;;;;;;14.47;42.88;100253.41;5001763;28;7017;-73
2021/03/12 09:43:07;;;;;;;;;;;;;;;14.51;42.45;100256.88;5016380;28;8821;-72
2021/03/12 09:45:32;;;;;;;;;;;;;;;14.45;42.65;100249.94;4981843;28;7242;-73
2021/03/12 09:47:58;;;;;;;;;;;;;;;14.48;42.75;100251.66;5001201;28;7308;-74
2021/03/12 09:50:24;;;;;;;;;;;;;;;14.64;42.66;100250.78;4999408;28;7324;-74
2021/03/12 09:52:55;;;;;;;;;;;;;;;14.84;41.94;100256.84;5002160;28;7471;-72
2021/03/12 09:55:20;;;;;;;;;;;;;;;14.98;41.51;100246.34;5016871;28;6820;-72
2021/03/12 09:57:46;;;;;;;;;;;;;;;15.17;41.35;100263.72;4998361;28;8193;-72
2021/03/12 10:00:19;;;;;;;;;;;;;;;15.45;40.82;100248.81;4999995;28;7115;-73
2021/03/12 10:03:03;;;;;;;;;;;;;;;15.57;40.58;100250.47;4997327;28;12807;-73
2021/03/12 10:05:28;;;;;;;;;;;;;;;15.79;40.14;100243.41;4999031;28;11109;-73
2021/03/12 10:07:54;;;;;;;;;;;;;;;15.89;40.08;100233.75;5003027;28;7657;-75
2021/03/12 10:10:24;;;;;;;;;;;;;;;15.98;39.59;100242.41;4979293;28;7475;-75
2021/03/12 10:12:52;;;;;;;;;;;;;;;16.05;39.64;100224.91;4984124;28;6946;-75
2021/03/12 10:15:20;;;;;;;;;;;;;;;16.03;39.74;100238.03;4992037;28;7711;-75
2021/03/12 10:17:45;;;;;;;;;;;;;;;16.06;39.83;100216.19;4997122;28;7333;-74
2021/03/12 10:20:25;;;;;;;;;;;;;;;16.24;39.28;100218.66;4997326;28;6877;-74
2021/03/12 10:22:53;;;;;;;;;;;;;;;16.51;38.57;100228.00;5008019;28;11167;-74
2021/03/12 10:25:26;;;;;;;;;;;;;;;16.58;38.59;100218.31;4996933;28;7405;-76
2021/03/12 10:27:59;;;;;;;;;;;;;;;16.52;38.98;100219.25;4995947;28;7625;-76
2021/03/12 10:30:40;;;;;;;;;;;;;;;16.46;38.77;100207.97;4993482;28;7185;-77
2021/03/12 10:33:10;;;;;;;;;;;;;;;16.54;38.61;100214.00;4997769;28;7066;-77
2021/03/12 10:35:43;;;;;;;;;;;;;;;16.69;38.19;100203.41;4997640;28;8056;-76
2021/03/12 10:38:25;;;;;;;;;;;;;;;16.93;37.63;100200.50;5011517;28;7499;-77
2021/03/12 10:41:16;;;;;;;;;;;;;;;17.07;37.51;100217.84;5000864;28;11161;-75
2021/03/12 10:43:42;;;;;;;;;;;;;;;17.16;37.14;100202.84;4995962;28;8608;-75
2021/03/12 10:46:08;;;;;;;;;;;;;;;17.34;37.02;100207.00;4996193;28;7041;-75
2021/03/12 10:48:40;;;;;;;;;;;;;;;17.53;36.67;100205.00;4997237;28;6867;-75
2021/03/12 10:51:06;;;;;;;;;;;;;;;17.63;36.32;100193.50;4991645;28;7112;-76
2021/03/12 10:53:42;;;;;;;;;;;;;;;17.82;35.96;100196.72;4982644;28;7842;-76
2021/03/12 10:56:08;;;;;;;;;;;;;;;17.81;36.27;100181.84;4985717;28;7901;-75
2021/03/12 10:58:35;;;;;;;;;;;;;;;17.83;36.02;100180.97;5016342;28;7450;-77
2021/03/12 11:01:26;;;;;;;;;;;;;;;18.07;35.70;100169.19;4983567;28;7295;-76
2021/03/12 11:03:52;;;;;;;;;;;;;;;18.33;34.97;100157.34;4998159;28;13668;-76
2021/03/12 11:06:19;;;;;;;;;;;;;;;18.48;34.70;100173.72;4997065;28;7303;-76
2021/03/12 11:08:45;;;;;;;;;;;;;;;18.50;34.62;100158.78;4981131;28;6938;-76
2021/03/12 11:11:12;;;;;;;;;;;;;;;18.60;34.57;100155.97;4987694;28;7114;-73
2021/03/12 11:13:39;;;;;;;;;;;;;;;18.81;34.35;100143.31;4995785;28;6823;-76
2021/03/12 11:16:05;;;;;;;;;;;;;;;18.93;33.89;100146.59;5013165;28;7218;-73
2021/03/12 11:18:31;;;;;;;;;;;;;;;19.03;33.87;100130.59;4999845;28;7102;-74
2021/03/12 11:20:58;;;;;;;;;;;;;;;19.14;33.66;100125.94;4998451;28;6987;-75
2021/03/12 11:23:23;;;;;;;;;;;;;;;19.24;33.52;100126.63;4994378;28;7477;-75
2021/03/12 11:25:49;;;;;;;;;;;;;;;19.17;33.87;100132.91;4998606;28;6814;-74
2021/03/12 11:28:15;;;;;;;;;;;;;;;19.33;32.98;100122.91;5014720;28;6882;-73
2021/03/12 11:30:40;;;;;;;;;;;;;;;19.55;33.13;100118.06;5013997;28;7361;-73
2021/03/12 11:33:06;;;;;;;;;;;;;;;19.64;32.97;100128.38;4999449;28;7280;-74
2021/03/12 11:35:32;;;;;;;;;;;;;;;19.54;33.03;100122.47;4991798;28;6788;-74
2021/03/12 11:37:57;;;;;;;;;;;;;;;19.42;33.00;100117.44;4981321;28;8528;-73
2021/03/12 11:40:23;;;;;;;;;;;;;;;19.45;32.23;100114.75;4997901;28;6807;-73
2021/03/12 11:42:48;;;;;;;;;;;;;;;19.61;32.53;100125.81;4996035;28;7226;-73
2021/03/12 11:45:15;;;;;;;;;;;;;;;19.60;32.41;100101.22;5012504;28;6867;-74
2021/03/12 11:47:41;;;;;;;;;;;;;;;19.71;31.94;100098.34;4998173;28;7283;-74
2021/03/12 11:50:09;;;;;;;;;;;;;;;19.94;32.24;100103.03;4998013;28;6883;-73
2021/03/12 11:52:34;;;;;;;;;;;;;;;20.19;31.51;100093.59;5015151;28;7168;-74
2021/03/12 11:55:00;;;;;;;;;;;;;;;20.49;31.08;100086.66;5015210;28;6948;-73
2021/03/12 11:57:26;;;;;;;;;;;;;;;20.63;31.07;100084.50;5012344;28;7210;-73
2021/03/12 11:59:51;;;;;;;;;;;;;;;20.77;31.06;100075.31;4980293;28;6787;-73
2021/03/12 12:02:17;;;;;;;;;;;;;;;20.69;31.43;100083.47;4995528;28;6794;-73
2021/03/12 12:04:43;;;;;;;;;;;;;;;20.86;31.03;100083.84;4991644;28;6775;-72
2021/03/12 12:07:09;;;;;;;;;;;;;;;20.96;30.85;100079.13;4994566;28;7329;-72
2021/03/12 12:09:35;;;;;;;;;;;;;;;21.09;31.02;100083.16;4998064;28;7075;-74
2021/03/12 12:12:01;;;;;;;;;;;;;;;21.19;30.33;100067.88;4997507;28;8026;-74
2021/03/12 12:14:26;;;;;;;;;;;;;;;21.38;30.03;100065.56;5000386;28;6804;-77
2021/03/12 12:16:52;;;;;;;;;;;;;;;21.53;29.88;100049.22;5012649;28;7692;-76
2021/03/12 12:19:19;;;;;;;;;;;;;;;21.56;29.85;100051.75;4996491;28;6800;-77
2021/03/12 12:21:45;;;;;;;;;;;;;;;21.73;29.71;100053.84;5001432;28;7289;-76
2021/03/12 12:24:10;;;;;;;;;;;;;;;21.54;29.97;100054.44;5014644;28;6966;-74
2021/03/12 12:26:36;;;;;;;;;;;;;;;21.33;30.67;100049.84;5002813;28;7297;-81
2021/03/12 12:29:04;;;;;;;;;;;;;;;21.33;30.43;100043.72;5009950;28;7356;-79
2021/03/12 12:31:30;;;;;;;;;;;;;;;21.43;30.11;100022.25;5006040;28;6899;-79
2021/03/12 12:33:56;;;;;;;;;;;;;;;21.30;30.82;100033.25;4989230;28;8210;-79
2021/03/12 12:36:23;;;;;;;;;;;;;;;21.17;30.51;100035.38;5004759;28;6866;-80
2021/03/12 12:38:49;;;;;;;;;;;;;;;21.27;30.25;100039.50;4987419;28;7048;-79
2021/03/12 12:41:14;;;;;;;;;;;;;;;21.11;31.34;100032.94;4998221;28;6992;-78
2021/03/12 12:43:40;;;;;;;;;;;;;;;20.98;30.79;100029.81;4999471;28;6979;-77
2021/03/12 12:46:05;;;;;;;;;;;;;;;20.77;31.20;100026.03;4999301;28;7071;-77
2021/03/12 12:48:31;;;;;;;;;;;;;;;20.70;31.53;100021.00;4995219;28;7059;-77
2021/03/12 12:50:56;;;;;;;;;;;;;;;20.65;31.74;100013.22;4996393;28;7055;-79
2021/03/12 12:53:22;;;;;;;;;;;;;;;20.64;31.29;100006.22;5000863;28;7234;-78
2021/03/12 12:55:47;;;;;;;;;;;;;;;20.48;31.54;99999.66;4999924;28;7770;-78